• Join FlightAware (Why Join?)
  • Login
  • US Flag 
12:46AM EDT


 

Airport Tracker/Info


-or-


 

Live Flight TrackerFlight Track Log ✈ EJA922 ✈ 28-Jun-2013 ✈ TXKF / BDA - KPBI

Flight Track Log - Related Links

Times and Time Zones

All times are in EDT time to prevent confusion due to time zone crossing. See the EJA922 flight status page for this flight to view local times or setup timezone preferences in your user account.

Time Position Orientation Groundspeed Altitude Reporting Facility
EDT Latitude Longitude Course Direction KTS MPH feet Rate Location/Type
09:13AM 32.3667 -64.6833 270° West 275 316 2,000  Level New York Oceanic (ODAPS)
09:13AM 32.3667 -64.6833 270° West 300 345 2,000  Level New York Oceanic (ODAPS)
09:19AM 32.3685 -65.3984 270° West 275 316 2,000 2,640 Level FlightAware Transoceanic
09:19AM 32.3667 -65.0833 270° West 479 551 17,000  Climbing New York Oceanic (ODAPS)
09:20AM 32.3691 -65.5334 270° West 300 345 2,000 -9,600 Descending FlightAware Transoceanic
09:21AM 32.3695 -65.6834 270° West 300 345 2,000  Level FlightAware Transoceanic
09:22AM 32.3698 -65.8334 270° West 300 345 2,000  Level FlightAware Transoceanic
09:23AM 32.3699 -65.9834 270° West 300 345 2,000  Level FlightAware Transoceanic
09:24AM 32.3698 -66.1334 270° West 300 345 2,000 7,500 Level FlightAware Transoceanic
09:25AM 32.3697 -66.1859 270° West 479 551 17,000 7,500 Climbing FlightAware Transoceanic
09:26AM 32.3694 -66.3435 270° West 479 551 17,000  Level FlightAware Transoceanic
09:27AM 32.3689 -66.5010 270° West 479 551 17,000  Level FlightAware Transoceanic
09:28AM 32.3681 -66.6585 270° West 479 551 17,000  Level FlightAware Transoceanic
09:29AM 32.3672 -66.8160 270° West 479 551 17,000  Level FlightAware Transoceanic
09:30AM 32.3661 -66.9735 269° West 479 551 17,000  Level FlightAware Transoceanic
09:31AM 32.3647 -67.1310 269° West 479 551 17,000  Level FlightAware Transoceanic
09:32AM 32.3632 -67.2885 269° West 479 551 17,000  Level FlightAware Transoceanic
09:33AM 32.3615 -67.4460 269° West 479 551 17,000 10,800 Level FlightAware Transoceanic
09:33AM 32.3667 -65.0833 270° West 417 480 36,000  Climbing New York Oceanic (ODAPS)
09:34AM 32.3596 -67.6035 269° West 479 551 17,000 -15,240 Descending FlightAware Transoceanic
09:35AM 32.3575 -67.7609 269° West 479 551 17,000  Level FlightAware Transoceanic
09:36AM 32.3552 -67.9184 269° West 479 551 17,000 16,200 Level FlightAware Transoceanic
09:36AM 32.3667 -65.0833 270° West 417 480 37,000  Climbing New York Oceanic (ODAPS)
09:37AM 32.3527 -68.0759 269° West 479 551 17,000 -11,340 Descending FlightAware Transoceanic
09:38AM 32.3500 -68.2333 245° Southwest 479 551 17,000  Level FlightAware Transoceanic
09:39AM 32.2910 -68.3855 245° Southwest 479 551 17,000 9,480 Level FlightAware Transoceanic
09:40AM 32.3523 -68.0964 269° West 417 480 36,000 9,480 Climbing FlightAware Transoceanic
09:41AM 32.3500 -68.2333 245° Southwest 417 480 36,000 480 Level FlightAware Transoceanic
09:42AM 32.2929 -68.3804 245° Southwest 417 480 37,000 480 Climbing FlightAware Transoceanic
09:43AM 32.2357 -68.5274 245° Southwest 417 480 37,000  Level FlightAware Transoceanic
09:44AM 32.1783 -68.6741 245° Southwest 417 480 37,000  Level FlightAware Transoceanic
09:45AM 32.1208 -68.8207 245° Southwest 417 480 37,000  Level FlightAware Transoceanic
09:46AM 32.0630 -68.9670 245° Southwest 417 480 37,000  Level FlightAware Transoceanic
09:47AM 32.0051 -69.1132 245° Southwest 417 480 37,000  Level FlightAware Transoceanic
09:48AM 31.9471 -69.2592 245° Southwest 417 480 37,000  Level FlightAware Transoceanic
09:49AM 31.8888 -69.4051 245° Southwest 417 480 37,000 2,700 Level FlightAware Transoceanic
09:49AM 32.3500 -68.2333 245° Southwest 491 565 40,000  Climbing New York Oceanic (ODAPS)
09:50AM 31.8304 -69.5507 245° Southwest 417 480 37,000 -1,620 Descending FlightAware Transoceanic
09:51AM 31.7719 -69.6962 245° Southwest 417 480 37,000  Level FlightAware Transoceanic
09:52AM 31.7131 -69.8414 245° Southwest 417 480 37,000  Level FlightAware Transoceanic
09:53AM 31.6542 -69.9865 244° Southwest 417 480 37,000  Level FlightAware Transoceanic
09:54AM 31.5687 -70.1963 244° Southwest 417 480 37,000 1,500 Level FlightAware Transoceanic
09:55AM 31.4766 -70.4206 244° Southwest 491 565 40,000 1,500 Climbing FlightAware Transoceanic
09:56AM 31.4170 -70.5650 244° Southwest 491 565 40,000  Level FlightAware Transoceanic
09:57AM 31.3573 -70.7092 244° Southwest 491 565 40,000  Level FlightAware Transoceanic
09:58AM 31.2974 -70.8531 244° Southwest 491 565 40,000  Level FlightAware Transoceanic
09:59AM 31.2374 -70.9969 244° Southwest 491 565 40,000  Level FlightAware Transoceanic
10:00AM 31.1772 -71.1405 244° Southwest 491 565 40,000  Level FlightAware Transoceanic
10:01AM 31.1169 -71.2840 244° Southwest 491 565 40,000  Level FlightAware Transoceanic
10:02AM 31.0564 -71.4272 244° Southwest 491 565 40,000  Level FlightAware Transoceanic
10:03AM 30.9957 -71.5703 244° Southwest 491 565 40,000  Level FlightAware Transoceanic
10:04AM 30.9349 -71.7132 244° Southwest 491 565 40,000  Level FlightAware Transoceanic
10:05AM 30.8739 -71.8559 243° Southwest 491 565 40,000  Level FlightAware Transoceanic
10:06AM 30.8128 -71.9984 243° Southwest 491 565 40,000  Level FlightAware Transoceanic
10:07AM 30.7515 -72.1407 243° Southwest 491 565 40,000  Level FlightAware Transoceanic
10:08AM 30.6900 -72.2829 243° Southwest 491 565 40,000  Level FlightAware Transoceanic
10:09AM 30.6284 -72.4249 243° Southwest 491 565 40,000  Level FlightAware Transoceanic
10:10AM 30.5667 -72.5667 243° Southwest 491 565 40,000  Level FlightAware Transoceanic
10:11AM 30.5049 -72.7071 243° Southwest 491 565 40,000  Level FlightAware Transoceanic
10:12AM 30.4430 -72.8473 243° Southwest 491 565 40,000  Level FlightAware Transoceanic
10:13AM 30.3809 -72.9873 243° Southwest 491 565 40,000  Level FlightAware Transoceanic
10:14AM 30.3187 -73.1272 243° Southwest 491 565 40,000  Level FlightAware Transoceanic
10:15AM 30.2564 -73.2669 243° Southwest 491 565 40,000  Level FlightAware Transoceanic
10:16AM 30.1939 -73.4064 243° Southwest 491 565 40,000  Level FlightAware Transoceanic
10:17AM 30.1312 -73.5457 242° Southwest 491 565 40,000  Level FlightAware Transoceanic
10:18AM 30.0684 -73.6849 242° Southwest 491 565 40,000  Level FlightAware Transoceanic
10:19AM 30.0055 -73.8238 242° Southwest 491 565 40,000  Level FlightAware Transoceanic
10:20AM 29.9424 -73.9626 242° Southwest 491 565 40,000  Level FlightAware Transoceanic
10:21AM 29.8791 -74.1012 242° Southwest 491 565 40,000  Level FlightAware Transoceanic
10:22AM 29.8158 -74.2397 242° Southwest 491 565 40,000  Level FlightAware Transoceanic
10:23AM 29.7522 -74.3780 242° Southwest 491 565 40,000  Level FlightAware Transoceanic
10:24AM 29.6886 -74.5161 242° Southwest 491 565 40,000  Level FlightAware Transoceanic
10:25AM 29.6248 -74.6540 242° Southwest 491 565 40,000  Level FlightAware Transoceanic
10:26AM 29.5608 -74.7917 242° Southwest 491 565 40,000  Level FlightAware Transoceanic
10:27AM 29.4967 -74.9293 242° Southwest 491 565 40,000  Level FlightAware Transoceanic
10:28AM 29.4325 -75.0667 242° Southwest 491 565 40,000  Level FlightAware Transoceanic
10:29AM 29.3681 -75.2039 242° Southwest 491 565 40,000  Level FlightAware Transoceanic
10:30AM 29.3036 -75.3410 242° Southwest 491 565 40,000  Level FlightAware Transoceanic
10:31AM 29.2389 -75.4779 242° Southwest 491 565 40,000  Level FlightAware Transoceanic
10:32AM 29.1741 -75.6146 241° Southwest 491 565 40,000  Level FlightAware Transoceanic
10:33AM 29.1092 -75.7511 241° Southwest 491 565 40,000  Level FlightAware Transoceanic
10:34AM 29.0441 -75.8875 241° Southwest 491 565 40,000  Level FlightAware Transoceanic
10:35AM 28.9789 -76.0236 241° Southwest 491 565 40,000  Level FlightAware Transoceanic
10:36AM 28.9135 -76.1597 241° Southwest 491 565 40,000  Level FlightAware Transoceanic
10:36AM 28.8814 -76.2114 240° Southwest 491 565 40,000  Level Miami Center
10:37AM 28.8480 -76.2955 241° Southwest 491 565 40,000  Level FlightAware Transoceanic
10:37AM 28.8153 -76.3492 241° Southwest 499 574 40,000  Level Miami Center
10:38AM 28.7824 -76.4312 241° Southwest 491 565 40,000  Level FlightAware Transoceanic
10:38AM 28.7467 -76.4867 240° Southwest 499 574 40,000 -120 Level Miami Center
10:39AM 28.7031 -76.5294 227° Southwest  Level FlightAware Approximate
10:39AM 28.6822 -76.6194 241° Southwest 499 574 39,900  Level Miami Center
10:40AM 28.6237 -76.6275 227° Southwest  Level FlightAware Approximate
10:40AM 28.6197 -76.7519 242° Southwest 489 563 41,400  Level Miami Center
10:41AM 28.6557 -76.6358 240° Southwest  Level FlightAware Approximate
10:41AM 28.5511 -76.8844 240° Southwest 480 552 42,900  Level Miami Center
10:42AM 28.5963 -76.7507 240° Southwest  Level FlightAware Approximate
10:42AM 28.5175 -77.0192 254° West 468 539 43,000  Level Miami Center
10:43AM 28.4881 -77.1586 257° West 454 522 42,900  Descending Miami Center
10:44AM 28.4586 -77.3025 257° West 461 531 43,000  Climbing Miami Center
10:45AM 28.4308 -77.4464 258° West 471 542 43,000  Level Miami Center
10:46AM 28.3947 -77.5950 255° West 476 548 43,000 -60 Level Miami Center
10:47AM 28.3708 -77.7411 260° West 476 548 42,900 -600 Descending Miami Center
10:48AM 28.3344 -77.8919 255° West 482 555 41,900 -1,500 Descending Miami Center
10:49AM 28.3042 -78.0425 257° West 487 560 40,000 -2,220 Descending Miami Center
10:50AM 28.2714 -78.1861 256° West 487 560 37,500 -2,820 Descending Miami Center
10:51AM 28.2472 -78.3342 260° West 487 560 34,400 -2,880 Descending Miami Center
10:52AM 28.2100 -78.4797 254° West 487 560 31,800 -2,040 Descending Miami Center
10:53AM 28.1792 -78.6256 257° West 487 560 30,400 -1,440 Descending Miami Center
10:54AM 28.1522 -78.7781 259° West 487 560 29,000 -1,500 Descending Miami Center
10:55AM 28.1186 -78.9283 256° West 492 566 27,500 -1,500 Descending Miami Center
10:56AM 28.0808 -79.0806 254° West 492 566 26,100 -1,500 Descending Miami Center
10:57AM 28.0411 -79.2256 253° West 492 566 24,600 -1,080 Descending Miami Center
10:58AM 27.9456 -79.3247 223° Southwest 463 533 24,000 -780 Descending Miami Center
10:59AM 27.8153 -79.3689 197° South 431 496 23,100 -1,680 Descending Miami Center
11:00AM 27.7033 -79.4461 211° Southwest 461 531 20,700 -2,340 Descending Miami Center
11:01AM 27.6142 -79.5169 215° Southwest 456 525 18,500 -2,100 Descending Miami Center
11:02AM 27.5233 -79.5825 213° Southwest 421 484 16,500 -2,040 Descending Miami Center
11:03AM 27.4342 -79.6483 213° Southwest 367 422 14,500 -1,800 Descending Miami Center
11:04AM 27.3642 -79.7053 216° Southwest 332 382 12,900 -1,620 Descending Miami Center
11:05AM 27.2942 -79.7594 215° Southwest 314 361 11,300 -1,560 Descending Miami Center
11:06AM 27.2328 -79.8047 213° Southwest 309 356 9,800 -1,500 Descending Miami Center
11:07AM 27.1669 -79.8544 214° Southwest 301 346 8,300 -1,020 Descending Miami Center
11:08AM 27.0931 -79.9014 209° Southwest 293 337 7,800 -960 Descending Miami Center
11:09AM 27.0233 -79.9417 207° Southwest 282 325 6,400 -1,500 Descending Miami Center
11:10AM 26.9556 -79.9842 209° Southwest 282 325 4,900 -1,260 Descending Miami Center
11:11AM 26.9022 -80.0292 217° Southwest 275 316 3,900 -540 Descending Miami Center
11:12AM 26.8469 -80.0744 216° Southwest 264 304 3,900 -660 Level Miami Center
11:13AM 26.7958 -80.1172 217° Southwest 249 287 2,600 -1,320 Descending Miami Center
11:15AM 26.6832 -80.0956 270° West  Level Estimated
11:22AM 26.6832 -80.0956 110° East  Level Estimated
11:23AM 26.6832 -80.0956 110° East  Level Estimated
11:24AM 26.6832 -80.0956 110° East  Level Estimated